Station Historical Data
Daily Summary for February 28, 2017 Units:  English    Metric   Both
Next Day »
Daily Weekly Monthly Yearly Custom
  High: Low: Average:
Temperature: 46.6 °F 30.0 °F 37.2 °F
Dew Point: 33.3 °F 25.5 °F 29.1 °F
Humidity: 92% 47% 73%
Wind Speed: 12.0mph 0.0mph 1mph
Wind Gust: 13.0mph - -
Wind- - South
Pressure: 30.42 in 30.06 in -
Precipitation: 0.00 in    
Historical Graphs
 
 
Tabular Data for February 28, 2017
Time Temperature Dew Point Pressure Wind Wind Speed Wind Gust Humidity Rainfall Rate (Hourly) solar Conditions
00:01 32.2 °F 28.8 °F 30.06 in East 1.0 mph 4.0 mph 87% 0.00 in 0.00 W/m2
00:06 32.3 °F 28.9 °F 30.06 in Calm   7.0 mph 87% 0.00 in 0.00 W/m2
00:11 32.3 °F 28.9 °F 30.06 in Calm   2.0 mph 87% 0.00 in 0.00 W/m2
00:16 32.3 °F 28.9 °F 30.06 in East 1.0 mph 12.0 mph 87% 0.00 in 0.00 W/m2
00:21 32.3 °F 28.9 °F 30.07 in Calm   7.0 mph 87% 0.00 in 0.00 W/m2
00:26 32.3 °F 28.9 °F 30.07 in East 1.0 mph 7.0 mph 87% 0.00 in 0.00 W/m2
00:31 32.3 °F 28.9 °F 30.07 in Calm   1.0 mph 87% 0.00 in 0.00 W/m2
00:36 32.2 °F 28.5 °F 30.07 in Calm   1.0 mph 86% 0.00 in 0.00 W/m2
00:41 32.2 °F 28.5 °F 30.07 in Calm   1.0 mph 86% 0.00 in 0.00 W/m2
00:46 32.3 °F 28.9 °F 30.07 in Calm     87% 0.00 in 0.00 W/m2
00:52 32.2 °F 28.8 °F 30.07 in Calm   1.0 mph 87% 0.00 in 0.00 W/m2
00:57 32.2 °F 28.5 °F 30.07 in Calm   2.0 mph 86% 0.00 in 0.00 W/m2
01:02 32.1 °F 28.4 °F 30.07 in Calm   4.0 mph 86% 0.00 in 0.00 W/m2
01:07 32.0 °F 28.3 °F 30.07 in Calm   4.0 mph 86% 0.00 in 0.00 W/m2
01:12 31.9 °F 28.2 °F 30.08 in Calm   2.0 mph 86% 0.00 in 0.00 W/m2
01:17 31.9 °F 28.2 °F 30.08 in ESE 2.0 mph 4.0 mph 86% 0.00 in 0.00 W/m2
01:22 31.8 °F 28.1 °F 30.08 in Calm   4.0 mph 86% 0.00 in 0.00 W/m2
01:27 31.8 °F 28.1 °F 30.08 in Calm   4.0 mph 86% 0.00 in 0.00 W/m2
01:32 31.8 °F 28.1 °F 30.08 in ESE 1.0 mph 4.0 mph 86% 0.00 in 0.00 W/m2
01:37 31.7 °F 28.0 °F 30.08 in Calm   4.0 mph 86% 0.00 in 0.00 W/m2
01:42 31.7 °F 28.0 °F 30.08 in Calm   2.0 mph 86% 0.00 in 0.00 W/m2
01:47 31.7 °F 29.6 °F 30.08 in Calm   5.0 mph 92% 0.00 in 0.00 W/m2
01:52 31.6 °F 27.9 °F 30.08 in ESE 1.0 mph 1.0 mph 86% 0.00 in 0.00 W/m2
01:57 31.5 °F 27.8 °F 30.09 in Calm   4.0 mph 86% 0.00 in 0.00 W/m2
02:02 31.5 °F 27.8 °F 30.09 in ESE 2.0 mph 2.0 mph 86% 0.00 in 0.00 W/m2
02:07 31.5 °F 27.8 °F 30.09 in Calm   4.0 mph 86% 0.00 in 0.00 W/m2
02:12 31.4 °F 27.7 °F 30.09 in ESE 2.0 mph 2.0 mph 86% 0.00 in 0.00 W/m2
02:17 31.4 °F 27.7 °F 30.09 in East 2.0 mph 4.0 mph 86% 0.00 in 0.00 W/m2
02:22 31.3 °F 27.3 °F 30.09 in ESE 1.0 mph 2.0 mph 85% 0.00 in 0.00 W/m2
02:27 31.3 °F 27.3 °F 30.09 in Calm     85% 0.00 in 0.00 W/m2
02:32 31.3 °F 27.6 °F 30.09 in East 2.0 mph 5.0 mph 86% 0.00 in 0.00 W/m2
02:37 31.3 °F 27.6 °F 30.09 in Calm     86% 0.00 in 0.00 W/m2
02:42 31.3 °F 27.6 °F 30.09 in East 4.0 mph 5.0 mph 86% 0.00 in 0.00 W/m2
02:47 31.3 °F 27.6 °F 30.09 in East 4.0 mph 6.0 mph 86% 0.00 in 0.00 W/m2
02:52 31.2 °F 27.5 °F 30.09 in Calm   5.0 mph 86% 0.00 in 0.00 W/m2
02:57 31.2 °F 27.2 °F 30.10 in East 7.0 mph 7.0 mph 85% 0.00 in 0.00 W/m2
03:02 31.1 °F 27.1 °F 30.10 in East 2.0 mph 5.0 mph 85% 0.00 in 0.00 W/m2
03:07 31.1 °F 27.1 °F 30.10 in Calm   1.0 mph 85% 0.00 in 0.00 W/m2
03:12 31.1 °F 27.1 °F 30.10 in Calm   4.0 mph 85% 0.00 in 0.00 W/m2
03:17 31.1 °F 27.4 °F 30.10 in East 2.0 mph 2.0 mph 86% 0.00 in 0.00 W/m2
03:22 31.1 °F 27.4 °F 30.10 in East 1.0 mph 4.0 mph 86% 0.00 in 0.00 W/m2
03:27 31.1 °F 27.4 °F 30.10 in Calm     86% 0.00 in 0.00 W/m2
03:32 31.1 °F 27.1 °F 30.10 in East 2.0 mph 5.0 mph 85% 0.00 in 0.00 W/m2
03:37 31.1 °F 27.1 °F 30.11 in East 2.0 mph 5.0 mph 85% 0.00 in 0.00 W/m2
03:42 31.2 °F 27.2 °F 30.11 in Calm   5.0 mph 85% 0.00 in 0.00 W/m2
03:47 31.2 °F 27.2 °F 30.11 in East 2.0 mph 6.0 mph 85% 0.00 in 0.00 W/m2
03:52 31.2 °F 27.2 °F 30.11 in Calm   4.0 mph 85% 0.00 in 0.00 W/m2
03:57 31.2 °F 27.2 °F 30.11 in East 2.0 mph 2.0 mph 85% 0.00 in 0.00 W/m2
04:02 31.3 °F 27.3 °F 30.11 in Calm   4.0 mph 85% 0.00 in 0.00 W/m2
04:07 31.4 °F 27.4 °F 30.11 in Calm   2.0 mph 85% 0.00 in 0.00 W/m2
04:12 31.4 °F 27.1 °F 30.11 in ESE 1.0 mph 5.0 mph 84% 0.00 in 0.00 W/m2
04:17 31.5 °F 27.2 °F 30.12 in ESE 4.0 mph 5.0 mph 84% 0.00 in 0.00 W/m2
04:22 31.5 °F 27.2 °F 30.12 in East 2.0 mph 6.0 mph 84% 0.00 in 0.00 W/m2
04:27 31.6 °F 27.3 °F 30.12 in Calm   5.0 mph 84% 0.00 in 0.00 W/m2
04:32 31.6 °F 27.0 °F 30.12 in East 4.0 mph 6.0 mph 83% 0.00 in 0.00 W/m2
04:37 31.6 °F 27.0 °F 30.12 in ESE 2.0 mph 5.0 mph 83% 0.00 in 0.00 W/m2
04:42 31.5 °F 26.9 °F 30.13 in ESE 6.0 mph 6.0 mph 83% 0.00 in 0.00 W/m2
04:47 31.5 °F 26.9 °F 30.13 in East 2.0 mph 5.0 mph 83% 0.00 in 0.00 W/m2
04:52 31.4 °F 26.5 °F 30.13 in Calm   6.0 mph 82% 0.00 in 0.00 W/m2
04:57 31.3 °F 26.5 °F 30.13 in ESE 2.0 mph 8.0 mph 82% 0.00 in 0.00 W/m2
05:02 31.2 °F 26.4 °F 30.13 in Calm   11.0 mph 82% 0.00 in 0.00 W/m2
05:07 31.1 °F 26.3 °F 30.13 in East 5.0 mph 6.0 mph 82% 0.00 in 0.00 W/m2
05:12 31.0 °F 26.5 °F 30.13 in Calm   6.0 mph 83% 0.00 in 0.00 W/m2
05:17 31.0 °F 26.5 °F 30.14 in Calm   4.0 mph 83% 0.00 in 0.00 W/m2
05:22 30.8 °F 26.3 °F 30.14 in ESE 1.0 mph 5.0 mph 83% 0.00 in 0.00 W/m2
05:27 30.8 °F 26.3 °F 30.14 in Calm   5.0 mph 83% 0.00 in 0.00 W/m2
05:28 30.8 °F 26.3 °F 30.14 in Calm   5.0 mph 83% 0.00 in 0.00 W/m2
05:33 30.7 °F 26.2 °F 30.15 in ESE 2.0 mph 5.0 mph 83% 0.00 in 0.00 W/m2
05:38 30.6 °F 26.1 °F 30.15 in ESE 2.0 mph 6.0 mph 83% 0.00 in 0.00 W/m2
05:43 30.6 °F 26.4 °F 30.15 in Calm   4.0 mph 84% 0.00 in 0.00 W/m2
05:48 30.5 °F 26.0 °F 30.15 in Calm   4.0 mph 83% 0.00 in 0.00 W/m2
05:53 30.4 °F 26.1 °F 30.15 in Calm   1.0 mph 84% 0.00 in 0.00 W/m2
05:58 30.3 °F 26.1 °F 30.15 in ESE 1.0 mph 6.0 mph 84% 0.00 in 0.00 W/m2
06:03 30.3 °F 26.1 °F 30.16 in ESE 1.0 mph 5.0 mph 84% 0.00 in 0.00 W/m2
06:08 30.3 °F 25.8 °F 30.16 in ESE 4.0 mph 5.0 mph 83% 0.00 in 0.00 W/m2
06:13 30.2 °F 26.0 °F 30.16 in Calm   2.0 mph 84% 0.00 in 0.00 W/m2
06:18 30.2 °F 26.0 °F 30.16 in Calm   4.0 mph 84% 0.00 in 0.00 W/m2
06:23 30.1 °F 25.9 °F 30.17 in ESE 1.0 mph 4.0 mph 84% 0.00 in 0.00 W/m2
06:28 30.1 °F 25.9 °F 30.17 in Calm   5.0 mph 84% 0.00 in 0.00 W/m2
06:33 30.1 °F 25.9 °F 30.17 in ESE 2.0 mph 5.0 mph 84% 0.00 in 5.00 W/m2
06:38 30.1 °F 25.6 °F 30.17 in Calm   5.0 mph 83% 0.00 in 7.00 W/m2
06:43 30.0 °F 25.5 °F 30.18 in Calm   6.0 mph 83% 0.00 in 9.00 W/m2
06:48 30.0 °F 25.8 °F 30.18 in ESE 12.0 mph 12.0 mph 84% 0.00 in 11.00 W/m2
06:53 30.0 °F 25.8 °F 30.18 in Calm   7.0 mph 84% 0.00 in 12.00 W/m2
06:58 30.0 °F 25.8 °F 30.18 in Calm   9.0 mph 84% 0.00 in 16.00 W/m2
07:03 30.0 °F 25.8 °F 30.18 in Calm   11.0 mph 84% 0.00 in 23.00 W/m2
07:08 30.1 °F 26.1 °F 30.19 in Calm   11.0 mph 85% 0.00 in 37.00 W/m2
07:13 30.1 °F 25.9 °F 30.19 in East 11.0 mph 12.0 mph 84% 0.00 in 51.00 W/m2
07:18 30.2 °F 26.0 °F 30.19 in ESE 6.0 mph 9.0 mph 84% 0.00 in 67.00 W/m2
07:23 30.2 °F 26.0 °F 30.19 in Calm   9.0 mph 84% 0.00 in 86.00 W/m2
07:28 30.3 °F 26.1 °F 30.20 in East 1.0 mph 13.0 mph 84% 0.00 in 104.00 W/m2
07:33 30.3 °F 26.1 °F 30.20 in Calm   5.0 mph 84% 0.00 in 123.00 W/m2
07:38 30.5 °F 26.5 °F 30.21 in East 1.0 mph 5.0 mph 85% 0.00 in 141.00 W/m2
07:43 30.6 °F 26.6 °F 30.21 in Calm   2.0 mph 85% 0.00 in 162.00 W/m2
07:48 30.7 °F 26.5 °F 30.21 in Calm   4.0 mph 84% 0.00 in 185.00 W/m2
07:53 30.8 °F 26.5 °F 30.22 in East 1.0 mph 4.0 mph 84% 0.00 in 206.00 W/m2
07:58 31.0 °F 26.7 °F 30.22 in Calm   2.0 mph 84% 0.00 in 229.00 W/m2
08:03 31.2 °F 26.9 °F 30.22 in Calm   2.0 mph 84% 0.00 in 251.00 W/m2
08:08 31.4 °F 27.1 °F 30.23 in Calm     84% 0.00 in 272.00 W/m2
08:13 31.6 °F 27.6 °F 30.23 in ESE 1.0 mph 2.0 mph 85% 0.00 in 290.00 W/m2
08:18 31.8 °F 27.5 °F 30.23 in Calm   4.0 mph 84% 0.00 in 311.00 W/m2
08:23 32.0 °F 28.0 °F 30.23 in ESE 2.0 mph 4.0 mph 85% 0.00 in 329.00 W/m2
08:28 32.3 °F 28.3 °F 30.24 in Calm     85% 0.00 in 348.00 W/m2
08:33 32.6 °F 28.3 °F 30.24 in Calm   4.0 mph 84% 0.00 in 364.00 W/m2
08:38 32.9 °F 28.0 °F 30.24 in Calm   1.0 mph 82% 0.00 in 381.00 W/m2
08:43 33.2 °F 28.6 °F 30.24 in Calm   4.0 mph 83% 0.00 in 397.00 W/m2
08:48 33.6 °F 28.7 °F 30.24 in ESE 1.0 mph 5.0 mph 82% 0.00 in 413.00 W/m2
08:53 33.9 °F 29.0 °F 30.25 in Calm     82% 0.00 in 425.00 W/m2
08:58 34.3 °F 29.4 °F 30.25 in Calm     82% 0.00 in 441.00 W/m2
09:03 34.7 °F 28.9 °F 30.25 in Calm     79% 0.00 in 457.00 W/m2
09:08 35.1 °F 28.9 °F 30.25 in Calm     78% 0.00 in 471.00 W/m2
09:13 35.6 °F 30.4 °F 30.25 in Calm   2.0 mph 81% 0.00 in 487.00 W/m2
09:18 35.9 °F 30.3 °F 30.25 in Calm   1.0 mph 80% 0.00 in 501.00 W/m2
09:23 36.2 °F 30.0 °F 30.25 in Calm     78% 0.00 in 515.00 W/m2
09:28 36.6 °F 28.4 °F 30.26 in Calm     72% 0.00 in 527.00 W/m2
09:29 36.6 °F 28.4 °F 30.26 in Calm     72% 0.00 in 529.00 W/m2
09:34 37.0 °F 28.1 °F 30.26 in Calm     70% 0.00 in 541.00 W/m2
09:39 37.5 °F 27.9 °F 30.26 in ESE 2.0 mph 2.0 mph 68% 0.00 in 555.00 W/m2
09:44 38.1 °F 28.1 °F 30.26 in Calm   1.0 mph 67% 0.00 in 566.00 W/m2
09:49 38.6 °F 27.1 °F 30.26 in Calm   1.0 mph 63% 0.00 in 580.00 W/m2
09:54 39.1 °F 26.4 °F 30.26 in Calm   1.0 mph 60% 0.00 in 596.00 W/m2
09:59 39.5 °F 27.2 °F 30.27 in ESE 2.0 mph 4.0 mph 61% 0.00 in 606.00 W/m2
10:04 39.7 °F 28.1 °F 30.27 in NNW 4.0 mph 5.0 mph 63% 0.00 in 635.00 W/m2
10:09 39.8 °F 26.7 °F 30.27 in NNW 1.0 mph 2.0 mph 59% 0.00 in 643.00 W/m2
10:14 40.1 °F 27.8 °F 30.27 in Calm   5.0 mph 61% 0.00 in 657.00 W/m2
10:19 40.3 °F 28.3 °F 30.28 in NW 1.0 mph 5.0 mph 62% 0.00 in 677.00 W/m2
10:24 40.5 °F 26.9 °F 30.28 in Calm   5.0 mph 58% 0.00 in 578.00 W/m2
10:29 40.6 °F 27.4 °F 30.28 in Calm   4.0 mph 59% 0.00 in 679.00 W/m2
10:34 40.6 °F 26.6 °F 30.28 in Calm   1.0 mph 57% 0.00 in 102.00 W/m2
10:39 40.4 °F 26.8 °F 30.28 in Calm     58% 0.00 in 109.00 W/m2
10:44 40.1 °F 26.1 °F 30.28 in Calm     57% 0.00 in 751.00 W/m2
10:49 40.0 °F 26.4 °F 30.28 in Calm     58% 0.00 in 626.00 W/m2
10:54 40.2 °F 27.0 °F 30.28 in Calm     59% 0.00 in 105.00 W/m2
10:59 40.4 °F 28.0 °F 30.28 in Calm     61% 0.00 in 105.00 W/m2
11:04 40.4 °F 27.6 °F 30.28 in Calm     60% 0.00 in 142.00 W/m2
11:09 40.6 °F 29.0 °F 30.28 in Calm     63% 0.00 in 726.00 W/m2
11:14 41.0 °F 28.2 °F 30.28 in Calm   1.0 mph 60% 0.00 in 733.00 W/m2
11:19 41.4 °F 28.6 °F 30.28 in Calm     60% 0.00 in 738.00 W/m2
11:24 41.8 °F 28.1 °F 30.28 in NNW 4.0 mph 4.0 mph 58% 0.00 in 744.00 W/m2
11:29 42.3 °F 29.0 °F 30.28 in NNW 3.0 mph 3.0 mph 59% 0.00 in 729.00 W/m2
11:34 42.7 °F 29.4 °F 30.28 in NW 3.0 mph 3.0 mph 59% 0.00 in 387.00 W/m2
11:39 42.8 °F 28.2 °F 30.28 in Calm     56% 0.00 in 156.00 W/m2
11:44 42.9 °F 29.2 °F 30.29 in Calm   3.0 mph 58% 0.00 in 109.00 W/m2
11:49 42.8 °F 29.1 °F 30.29 in WNW 2.0 mph 3.0 mph 58% 0.00 in 749.00 W/m2
11:54 42.8 °F 27.3 °F 30.29 in WNW 1.0 mph 2.0 mph 54% 0.00 in 768.00 W/m2
11:59 42.9 °F 27.4 °F 30.29 in Calm   3.0 mph 54% 0.00 in 765.00 W/m2
12:04 43.2 °F 28.1 °F 30.28 in NNW 2.0 mph 6.0 mph 55% 0.00 in 761.00 W/m2
12:09 43.4 °F 26.5 °F 30.28 in Calm   2.0 mph 51% 0.00 in 759.00 W/m2
12:14 43.6 °F 25.7 °F 30.29 in Calm   2.0 mph 49% 0.00 in 758.00 W/m2
12:19 43.8 °F 26.4 °F 30.28 in West 2.0 mph 4.0 mph 50% 0.00 in 763.00 W/m2
12:24 43.9 °F 27.0 °F 30.29 in WNW 2.0 mph 3.0 mph 51% 0.00 in 765.00 W/m2
12:29 44.1 °F 28.1 °F 30.29 in NW 4.0 mph 8.0 mph 53% 0.00 in 761.00 W/m2
12:34 44.4 °F 27.9 °F 30.28 in Calm   4.0 mph 52% 0.00 in 756.00 W/m2
12:39 44.7 °F 26.7 °F 30.29 in NW 8.0 mph 8.0 mph 49% 0.00 in 756.00 W/m2
12:44 44.9 °F 27.9 °F 30.29 in West 1.0 mph 11.0 mph 51% 0.00 in 754.00 W/m2
12:49 45.1 °F 29.0 °F 30.28 in Calm   2.0 mph 53% 0.00 in 749.00 W/m2
12:54 45.3 °F 28.2 °F 30.28 in Calm   4.0 mph 51% 0.00 in 744.00 W/m2
12:59 45.5 °F 28.0 °F 30.28 in NW 3.0 mph 3.0 mph 50% 0.00 in 740.00 W/m2
13:04 45.8 °F 27.7 °F 30.28 in Calm   9.0 mph 49% 0.00 in 738.00 W/m2
13:09 46.0 °F 26.9 °F 30.28 in WNW 1.0 mph 11.0 mph 47% 0.00 in 729.00 W/m2
13:14 46.1 °F 29.5 °F 30.28 in NW 1.0 mph 2.0 mph 52% 0.00 in 728.00 W/m2
13:19 46.1 °F 29.0 °F 30.28 in Calm   2.0 mph 51% 0.00 in 726.00 W/m2
13:24 46.1 °F 29.5 °F 30.28 in Calm   4.0 mph 52% 0.00 in 729.00 W/m2
13:29 46.4 °F 28.8 °F 30.28 in NW 1.0 mph 2.0 mph 50% 0.00 in 722.00 W/m2
13:34 46.5 °F 29.8 °F 30.28 in WNW 7.0 mph 7.0 mph 52% 0.00 in 726.00 W/m2
13:39 46.6 °F 29.9 °F 30.28 in Calm   3.0 mph 52% 0.00 in 705.00 W/m2
13:44 46.6 °F 30.4 °F 30.28 in Calm   5.0 mph 53% 0.00 in 631.00 W/m2
13:49 46.5 °F 29.4 °F 30.28 in Calm   2.0 mph 51% 0.00 in 127.00 W/m2
13:54 46.4 °F 30.2 °F 30.28 in Calm   2.0 mph 53% 0.00 in 141.00 W/m2
13:59 46.1 °F 31.3 °F 30.28 in Calm   1.0 mph 56% 0.00 in 127.00 W/m2
14:04 45.9 °F 30.7 °F 30.28 in WSW 10.0 mph 10.0 mph 55% 0.00 in 740.00 W/m2
14:09 45.9 °F 31.5 °F 30.29 in Calm   11.0 mph 57% 0.00 in 621.00 W/m2
14:14 45.9 °F 31.5 °F 30.29 in NNW 9.0 mph 9.0 mph 57% 0.00 in 712.00 W/m2
14:19 46.0 °F 32.1 °F 30.29 in NW 9.0 mph 11.0 mph 58% 0.00 in 640.00 W/m2
14:24 46.1 °F 32.2 °F 30.29 in West 2.0 mph 9.0 mph 58% 0.00 in 612.00 W/m2
14:29 46.1 °F 32.6 °F 30.29 in NW 1.0 mph 9.0 mph 59% 0.00 in 596.00 W/m2
14:34 46.1 °F 32.2 °F 30.29 in Calm   11.0 mph 58% 0.00 in 584.00 W/m2
14:39 46.1 °F 32.2 °F 30.29 in Calm   1.0 mph 58% 0.00 in 571.00 W/m2
14:44 46.1 °F 32.6 °F 30.29 in NW 6.0 mph 12.0 mph 59% 0.00 in 564.00 W/m2
14:49 46.2 °F 32.2 °F 30.29 in WNW 1.0 mph 13.0 mph 58% 0.00 in 554.00 W/m2
14:50 46.2 °F 32.7 °F 30.29 in NW 1.0 mph 13.0 mph 59% 0.00 in 552.00 W/m2
14:55 46.4 °F 32.4 °F 30.30 in Calm   8.0 mph 58% 0.00 in 536.00 W/m2
15:00 46.4 °F 32.0 °F 30.30 in West 4.0 mph 7.0 mph 57% 0.00 in 529.00 W/m2
15:05 46.4 °F 32.0 °F 30.30 in West 1.0 mph 7.0 mph 57% 0.00 in 519.00 W/m2
15:10 46.5 °F 33.0 °F 30.30 in WNW 3.0 mph 8.0 mph 59% 0.00 in 517.00 W/m2
15:15 46.4 °F 32.0 °F 30.30 in West 7.0 mph 9.0 mph 57% 0.00 in 527.00 W/m2
15:20 46.4 °F 32.4 °F 30.30 in Calm   11.0 mph 58% 0.00 in 480.00 W/m2
15:25 46.3 °F 33.2 °F 30.30 in Calm   9.0 mph 60% 0.00 in 455.00 W/m2
15:30 46.3 °F 32.8 °F 30.30 in NW 1.0 mph 12.0 mph 59% 0.00 in 431.00 W/m2
15:35 46.1 °F 32.6 °F 30.31 in Calm   6.0 mph 59% 0.00 in 420.00 W/m2
15:40 46.0 °F 32.1 °F 30.31 in West 5.0 mph 8.0 mph 58% 0.00 in 399.00 W/m2
15:45 45.9 °F 32.8 °F 30.31 in NW 1.0 mph 9.0 mph 60% 0.00 in 383.00 W/m2
15:50 45.9 °F 32.8 °F 30.31 in WNW 7.0 mph 9.0 mph 60% 0.00 in 367.00 W/m2
15:55 45.8 °F 31.9 °F 30.31 in Calm   9.0 mph 58% 0.00 in 350.00 W/m2
16:00 45.6 °F 31.3 °F 30.32 in NW 1.0 mph 9.0 mph 57% 0.00 in 336.00 W/m2
16:05 45.6 °F 32.1 °F 30.32 in West 1.0 mph 8.0 mph 59% 0.00 in 315.00 W/m2
16:10 45.6 °F 32.1 °F 30.32 in Calm   4.0 mph 59% 0.00 in 302.00 W/m2
16:15 45.5 °F 32.0 °F 30.32 in West 1.0 mph 9.0 mph 59% 0.00 in 285.00 W/m2
16:20 45.4 °F 32.3 °F 30.32 in Calm   8.0 mph 60% 0.00 in 269.00 W/m2
16:25 45.3 °F 32.2 °F 30.32 in NW 4.0 mph 9.0 mph 60% 0.00 in 253.00 W/m2
16:30 45.2 °F 31.7 °F 30.33 in Calm   9.0 mph 59% 0.00 in 237.00 W/m2
16:35 45.0 °F 31.5 °F 30.33 in Calm   8.0 mph 59% 0.00 in 214.00 W/m2
16:36 45.0 °F 31.5 °F 30.33 in WNW 4.0 mph 8.0 mph 59% 0.00 in 207.00 W/m2
16:41 44.9 °F 31.0 °F 30.33 in Calm   9.0 mph 58% 0.00 in 193.00 W/m2
16:46 44.7 °F 31.7 °F 30.33 in Calm   1.0 mph 60% 0.00 in 172.00 W/m2
16:51 44.5 °F 31.1 °F 30.33 in Calm   1.0 mph 59% 0.00 in 155.00 W/m2
16:56 44.4 °F 31.8 °F 30.33 in West 1.0 mph 6.0 mph 61% 0.00 in 128.00 W/m2
17:01 44.2 °F 32.8 °F 30.33 in Calm   1.0 mph 64% 0.00 in 113.00 W/m2
17:06 43.9 °F 30.9 °F 30.33 in Calm   1.0 mph 60% 0.00 in 90.00 W/m2
17:11 43.7 °F 30.7 °F 30.33 in Calm   1.0 mph 60% 0.00 in 76.00 W/m2
17:16 43.6 °F 31.5 °F 30.33 in Calm   1.0 mph 62% 0.00 in 58.00 W/m2
17:21 43.5 °F 30.5 °F 30.33 in Calm     60% 0.00 in 44.00 W/m2
17:26 43.4 °F 32.0 °F 30.34 in Calm   1.0 mph 64% 0.00 in 35.00 W/m2
17:31 43.2 °F 31.1 °F 30.34 in Calm   1.0 mph 62% 0.00 in 25.00 W/m2
17:36 43.0 °F 32.1 °F 30.34 in Calm   1.0 mph 65% 0.00 in 18.00 W/m2
17:41 42.7 °F 32.5 °F 30.34 in Calm   1.0 mph 67% 0.00 in 14.00 W/m2
17:46 42.4 °F 33.3 °F 30.35 in NW 1.0 mph 1.0 mph 70% 0.00 in 11.00 W/m2
17:51 42.2 °F 32.4 °F 30.35 in Calm   1.0 mph 68% 0.00 in 9.00 W/m2
17:56 41.9 °F 32.5 °F 30.34 in Calm   1.0 mph 69% 0.00 in 5.00 W/m2
18:01 41.6 °F 32.9 °F 30.35 in Calm   1.0 mph 71% 0.00 in 0.00 W/m2
18:06 41.2 °F 32.9 °F 30.35 in Calm     72% 0.00 in 0.00 W/m2
18:11 40.8 °F 32.5 °F 30.35 in Calm     72% 0.00 in 0.00 W/m2
18:16 40.4 °F 32.1 °F 30.35 in Calm   1.0 mph 72% 0.00 in 0.00 W/m2
18:21 40.1 °F 31.8 °F 30.35 in Calm   1.0 mph 72% 0.00 in 0.00 W/m2
18:26 39.7 °F 31.8 °F 30.36 in NNW 1.0 mph 1.0 mph 73% 0.00 in 0.00 W/m2
18:31 39.4 °F 31.5 °F 30.36 in Calm   1.0 mph 73% 0.00 in 0.00 W/m2
18:36 39.2 °F 31.3 °F 30.36 in NNW 1.0 mph 1.0 mph 73% 0.00 in 0.00 W/m2
18:41 39.1 °F 30.9 °F 30.36 in NNW 1.0 mph 1.0 mph 72% 0.00 in 0.00 W/m2
18:46 38.9 °F 30.7 °F 30.36 in Calm   1.0 mph 72% 0.00 in 0.00 W/m2
18:51 38.8 °F 30.2 °F 30.37 in Calm   1.0 mph 71% 0.00 in 0.00 W/m2
18:56 38.8 °F 30.6 °F 30.37 in NNW 1.0 mph 1.0 mph 72% 0.00 in 0.00 W/m2
19:01 38.7 °F 30.1 °F 30.37 in NNW 1.0 mph 1.0 mph 71% 0.00 in 0.00 W/m2
19:06 38.6 °F 30.0 °F 30.37 in Calm   1.0 mph 71% 0.00 in 0.00 W/m2
19:11 38.5 °F 30.3 °F 30.37 in NNW 1.0 mph 1.0 mph 72% 0.00 in 0.00 W/m2
19:16 38.4 °F 30.5 °F 30.37 in Calm   1.0 mph 73% 0.00 in 0.00 W/m2
19:21 38.3 °F 30.4 °F 30.37 in Calm     73% 0.00 in 0.00 W/m2
19:26 38.1 °F 30.2 °F 30.38 in Calm     73% 0.00 in 0.00 W/m2
19:31 38.0 °F 30.5 °F 30.37 in Calm     74% 0.00 in 0.00 W/m2
19:36 37.8 °F 30.3 °F 30.37 in Calm     74% 0.00 in 0.00 W/m2
19:41 37.6 °F 30.4 °F 30.38 in Calm     75% 0.00 in 0.00 W/m2
19:46 37.4 °F 30.2 °F 30.38 in Calm     75% 0.00 in 0.00 W/m2
19:51 37.2 °F 30.4 °F 30.38 in Calm     76% 0.00 in 0.00 W/m2
19:56 37.0 °F 30.1 °F 30.38 in Calm     76% 0.00 in 0.00 W/m2
20:01 36.7 °F 29.9 °F 30.38 in Calm     76% 0.00 in 0.00 W/m2
20:06 36.5 °F 29.7 °F 30.38 in Calm     76% 0.00 in 0.00 W/m2
20:11 36.3 °F 29.8 °F 30.38 in Calm     77% 0.00 in 0.00 W/m2
20:16 36.2 °F 29.7 °F 30.38 in Calm     77% 0.00 in 0.00 W/m2
20:21 36.1 °F 29.9 °F 30.39 in NNW 1.0 mph 2.0 mph 78% 0.00 in 0.00 W/m2
20:26 36.1 °F 29.9 °F 30.39 in Calm     78% 0.00 in 0.00 W/m2
20:31 36.1 °F 29.9 °F 30.39 in Calm     78% 0.00 in 0.00 W/m2
20:36 36.1 °F 29.9 °F 30.39 in Calm     78% 0.00 in 0.00 W/m2
20:41 36.1 °F 29.9 °F 30.39 in Calm     78% 0.00 in 0.00 W/m2
20:46 36.0 °F 29.8 °F 30.39 in Calm     78% 0.00 in 0.00 W/m2
20:51 35.9 °F 29.7 °F 30.39 in Calm     78% 0.00 in 0.00 W/m2
20:56 36.0 °F 29.8 °F 30.39 in Calm     78% 0.00 in 0.00 W/m2
21:01 36.0 °F 29.8 °F 30.39 in Calm     78% 0.00 in 0.00 W/m2
21:06 35.9 °F 29.7 °F 30.39 in Calm     78% 0.00 in 0.00 W/m2
21:11 35.9 °F 30.0 °F 30.39 in Calm     79% 0.00 in 0.00 W/m2
21:16 35.9 °F 30.0 °F 30.39 in Calm     79% 0.00 in 0.00 W/m2
21:21 35.8 °F 30.2 °F 30.39 in Calm     80% 0.00 in 0.00 W/m2
21:26 35.8 °F 30.2 °F 30.39 in Calm   1.0 mph 80% 0.00 in 0.00 W/m2
21:31 35.8 °F 30.2 °F 30.40 in NE 1.0 mph 1.0 mph 80% 0.00 in 0.00 W/m2
21:36 35.8 °F 30.2 °F 30.40 in Calm   2.0 mph 80% 0.00 in 0.00 W/m2
21:41 35.8 °F 30.2 °F 30.40 in NE 1.0 mph 1.0 mph 80% 0.00 in 0.00 W/m2
21:46 35.8 °F 30.2 °F 30.40 in Calm   2.0 mph 80% 0.00 in 0.00 W/m2
21:51 35.9 °F 30.6 °F 30.40 in ENE 2.0 mph 2.0 mph 81% 0.00 in 0.00 W/m2
21:56 35.9 °F 30.6 °F 30.40 in ENE 1.0 mph 2.0 mph 81% 0.00 in 0.00 W/m2
22:01 35.9 °F 30.6 °F 30.40 in Calm   1.0 mph 81% 0.00 in 0.00 W/m2
22:06 35.9 °F 30.6 °F 30.41 in ENE 1.0 mph 3.0 mph 81% 0.00 in 0.00 W/m2
22:11 35.9 °F 30.6 °F 30.41 in Calm   1.0 mph 81% 0.00 in 0.00 W/m2
22:16 35.9 °F 31.0 °F 30.41 in East 2.0 mph 2.0 mph 82% 0.00 in 0.00 W/m2
22:21 35.9 °F 31.0 °F 30.41 in East 2.0 mph 3.0 mph 82% 0.00 in 0.00 W/m2
22:26 35.9 °F 31.0 °F 30.41 in Calm   2.0 mph 82% 0.00 in 0.00 W/m2
22:31 35.9 °F 31.0 °F 30.41 in East 4.0 mph 4.0 mph 82% 0.00 in 0.00 W/m2
22:36 35.9 °F 31.0 °F 30.41 in Calm   1.0 mph 82% 0.00 in 0.00 W/m2
22:41 35.9 °F 31.0 °F 30.41 in East 4.0 mph 4.0 mph 82% 0.00 in 0.00 W/m2
22:46 35.9 °F 31.0 °F 30.41 in East 4.0 mph 6.0 mph 82% 0.00 in 0.00 W/m2
22:51 35.9 °F 31.0 °F 30.41 in East 1.0 mph 6.0 mph 82% 0.00 in 0.00 W/m2
22:52 35.9 °F 31.0 °F 30.41 in East 1.0 mph 6.0 mph 82% 0.00 in 0.00 W/m2
22:57 36.0 °F 31.0 °F 30.41 in ESE 4.0 mph 5.0 mph 82% 0.00 in 0.00 W/m2
23:02 36.0 °F 31.0 °F 30.41 in East 1.0 mph 2.0 mph 82% 0.00 in 0.00 W/m2
23:07 36.0 °F 31.0 °F 30.41 in Calm   1.0 mph 82% 0.00 in 0.00 W/m2
23:12 36.0 °F 31.0 °F 30.41 in Calm   2.0 mph 82% 0.00 in 0.00 W/m2
23:17 36.0 °F 31.0 °F 30.41 in Calm   4.0 mph 82% 0.00 in 0.00 W/m2
23:22 36.0 °F 31.0 °F 30.42 in East 1.0 mph 4.0 mph 82% 0.00 in 0.00 W/m2
23:27 36.0 °F 31.0 °F 30.42 in Calm   4.0 mph 82% 0.00 in 0.00 W/m2
23:32 36.0 °F 31.0 °F 30.42 in Calm   6.0 mph 82% 0.00 in 0.00 W/m2
23:37 35.9 °F 31.0 °F 30.42 in Calm   1.0 mph 82% 0.00 in 0.00 W/m2
23:42 35.9 °F 31.0 °F 30.42 in Calm   2.0 mph 82% 0.00 in 0.00 W/m2
23:47 35.9 °F 31.0 °F 30.42 in East 4.0 mph 8.0 mph 82% 0.00 in 0.00 W/m2
23:52 35.9 °F 31.0 °F 30.42 in East 1.0 mph 12.0 mph 82% 0.00 in 0.00 W/m2
23:57 35.8 °F 30.9 °F 30.42 in Calm   12.0 mph 82% 0.00 in 0.00 W/m2
Foresthill Weather
 WU-history PHP script courtesy of   Juneau County Weather.
powered by Cumulus v1.9.3 (1059)
Ambient Weather VWS v14.00
Top Contact Website Map Copyright © 2007 - 2018 Foresthillweather.com Never base important decisions on this or any weather information obtained from the Internet